createdAt,value
2023-01-19T00:01:42.654Z,99874.11
2023-01-19T00:04:10.828Z,99869.23
2023-01-19T00:06:38.857Z,99873.71
2023-01-19T00:09:06.797Z,99874.86
2023-01-19T00:11:34.694Z,99877.99
2023-01-19T00:14:02.624Z,99878.83
2023-01-19T00:16:30.739Z,99882.13
2023-01-19T00:18:58.776Z,99886.99
2023-01-19T00:21:26.792Z,99889.21
2023-01-19T00:23:54.800Z,99892.05
2023-01-19T00:26:22.726Z,99895.00
2023-01-19T00:28:50.786Z,99904.44
2023-01-19T00:31:20.805Z,99907.20
2023-01-19T00:33:49.607Z,99906.13
2023-01-19T00:36:17.541Z,99907.90
2023-01-19T00:38:45.558Z,99904.35
2023-01-19T00:41:13.528Z,99909.09
2023-01-19T00:43:41.444Z,99910.63
2023-01-19T00:46:09.526Z,99916.83
2023-01-19T00:48:37.568Z,99922.05
2023-01-19T00:51:05.675Z,99920.44
2023-01-19T00:53:33.632Z,99919.68
2023-01-19T00:56:01.600Z,99920.08
2023-01-19T00:58:29.759Z,99922.52
2023-01-19T01:01:03.736Z,99920.42
2023-01-19T01:03:32.678Z,99923.48
2023-01-19T01:06:00.705Z,99929.64
2023-01-19T01:08:28.672Z,99932.31
2023-01-19T01:10:56.845Z,99933.45
2023-01-19T01:13:27.510Z,99932.40
2023-01-19T01:15:56.267Z,99933.48
2023-01-19T01:18:24.470Z,99934.75
2023-01-19T01:20:53.983Z,99936.64
2023-01-19T01:23:23.303Z,99934.19
2023-01-19T01:25:51.240Z,99933.66
2023-01-19T01:28:19.226Z,99936.42
2023-01-19T01:30:47.321Z,99944.77
2023-01-19T01:33:15.270Z,99952.16
2023-01-19T01:36:03.428Z,99958.85
2023-01-19T01:38:31.500Z,99963.04
2023-01-19T01:40:59.530Z,99967.33
2023-01-19T01:43:47.087Z,99973.12
2023-01-19T01:46:16.336Z,99973.92
2023-01-19T01:48:53.135Z,99975.88
2023-01-19T01:51:30.473Z,99982.55
2023-01-19T01:54:12.952Z,99990.63
2023-01-19T01:56:44.083Z,100000.14
2023-01-19T01:59:26.101Z,100003.79
2023-01-19T02:02:17.136Z,100005.88
2023-01-19T02:04:58.771Z,100008.45
2023-01-19T02:07:59.778Z,100013.63
2023-01-19T02:10:46.548Z,100019.70
2023-01-19T02:13:18.687Z,100021.39
2023-01-19T02:15:51.853Z,100020.02
2023-01-19T02:18:21.341Z,100015.04
2023-01-19T02:20:56.901Z,100015.98
2023-01-19T02:23:57.872Z,100020.29
2023-01-19T02:26:43.284Z,100021.04
2023-01-19T02:29:18.997Z,100017.95
2023-01-19T02:31:47.803Z,100013.81
2023-01-19T02:34:17.085Z,100012.74
2023-01-19T02:36:57.264Z,100010.34
2023-01-19T02:39:28.136Z,100009.77
2023-01-19T02:41:59.469Z,100015.74
2023-01-19T02:44:27.490Z,100020.17
2023-01-19T02:46:55.438Z,100017.96
2023-01-19T02:49:23.676Z,100018.30
2023-01-19T02:51:51.623Z,100017.52
2023-01-19T02:54:41.889Z,100021.30
2023-01-19T02:57:15.845Z,100022.95
2023-01-19T02:59:53.703Z,100028.29
2023-01-19T03:02:34.141Z,100031.56
2023-01-19T03:05:36.713Z,100034.80
2023-01-19T03:08:08.144Z,100036.92
2023-01-19T03:10:39.046Z,100036.89
2023-01-19T03:13:15.053Z,100033.02
2023-01-19T03:15:51.222Z,100027.73
2023-01-19T03:18:20.716Z,100016.13
2023-01-19T03:20:48.975Z,100014.76
2023-01-19T03:23:17.004Z,100022.28
2023-01-19T03:25:45.699Z,100029.62
2023-01-19T03:28:13.630Z,100031.29
2023-01-19T03:30:46.843Z,100031.57
2023-01-19T03:33:23.114Z,100029.08
2023-01-19T03:35:52.852Z,100028.41
2023-01-19T03:38:24.817Z,100029.89
2023-01-19T03:40:56.067Z,100031.70
2023-01-19T03:43:24.634Z,100032.34
2023-01-19T03:45:52.699Z,100035.67
2023-01-19T03:48:22.011Z,100035.45
2023-01-19T03:50:50.431Z,100038.12
2023-01-19T03:53:22.175Z,100040.09
2023-01-19T03:55:51.222Z,100046.88
2023-01-19T03:58:19.556Z,100044.32
2023-01-19T04:00:47.753Z,100041.96
2023-01-19T04:03:16.825Z,100046.11
2023-01-19T04:05:45.072Z,100040.86
2023-01-19T04:08:13.107Z,100050.95
2023-01-19T04:10:41.143Z,100053.35
2023-01-19T04:13:09.296Z,100058.30
2023-01-19T04:15:37.337Z,100056.89
2023-01-19T04:18:05.459Z,100056.29
2023-01-19T04:20:34.102Z,100056.99
2023-01-19T04:23:02.521Z,100057.55
2023-01-19T04:25:30.923Z,100055.01
2023-01-19T04:27:59.138Z,100054.36
2023-01-19T04:30:27.830Z,100057.17
2023-01-19T04:32:56.503Z,100056.22
2023-01-19T04:35:24.462Z,100047.28
2023-01-19T04:37:52.532Z,100042.81
2023-01-19T04:40:20.591Z,100040.80
2023-01-19T04:42:48.692Z,100039.65
2023-01-19T04:45:17.650Z,100042.19
2023-01-19T04:47:45.801Z,100049.05
2023-01-19T04:50:13.830Z,100056.80
2023-01-19T04:52:41.820Z,100057.83
2023-01-19T04:55:10.433Z,100058.16
2023-01-19T04:57:38.797Z,100056.40
2023-01-19T05:00:08.409Z,100061.26
2023-01-19T05:02:36.536Z,100068.43
2023-01-19T05:05:05.081Z,100068.45
2023-01-19T05:07:33.047Z,100066.98
2023-01-19T05:10:01.460Z,100067.15
2023-01-19T05:12:29.486Z,100073.92
2023-01-19T05:14:57.593Z,100073.80
2023-01-19T05:17:25.702Z,100069.24
2023-01-19T05:19:53.732Z,100068.63
2023-01-19T05:22:21.778Z,100069.80
2023-01-19T05:24:49.864Z,100072.73
2023-01-19T05:27:18.132Z,100078.08
2023-01-19T05:29:46.298Z,100082.13
2023-01-19T05:32:14.479Z,100085.43
2023-01-19T05:34:42.603Z,100082.86
2023-01-19T05:37:11.125Z,100077.61
2023-01-19T05:39:39.189Z,100073.81
2023-01-19T05:42:07.590Z,100076.36
2023-01-19T05:44:35.776Z,100083.62
2023-01-19T05:47:03.805Z,100089.81
2023-01-19T05:49:31.777Z,100092.55
2023-01-19T05:51:59.815Z,100094.60
2023-01-19T05:54:27.840Z,100103.10
2023-01-19T05:56:55.942Z,100103.86
2023-01-19T05:59:24.473Z,100103.06
2023-01-19T06:01:52.957Z,100106.34
2023-01-19T06:04:21.531Z,100105.91
2023-01-19T06:06:50.057Z,100102.08
2023-01-19T06:09:18.702Z,100103.90
2023-01-19T06:11:47.113Z,100105.95
2023-01-19T06:14:15.223Z,100113.97
2023-01-19T06:16:43.251Z,100115.71
2023-01-19T06:19:11.273Z,100115.98
2023-01-19T06:21:39.630Z,100119.02
2023-01-19T06:24:07.886Z,100129.90
2023-01-19T06:26:36.092Z,100141.48
2023-01-19T06:29:04.359Z,100152.07
2023-01-19T06:31:32.563Z,100158.09
2023-01-19T06:34:01.257Z,100164.61
2023-01-19T06:36:29.261Z,100170.50
2023-01-19T06:38:57.221Z,100180.88
2023-01-19T06:41:25.130Z,100187.02
2023-01-19T06:43:53.161Z,100198.34
2023-01-19T06:46:21.388Z,100205.40
2023-01-19T06:48:51.877Z,100208.86
2023-01-19T06:51:20.527Z,100218.83
2023-01-19T06:53:48.498Z,100219.87
2023-01-19T06:56:16.642Z,100226.64
2023-01-19T06:58:47.372Z,100232.41
2023-01-19T07:01:15.539Z,100240.04
2023-01-19T07:03:46.088Z,100245.52
2023-01-19T07:06:15.475Z,100250.46
2023-01-19T07:08:43.512Z,100249.21
2023-01-19T07:11:25.126Z,100251.16
2023-01-19T07:13:59.407Z,100254.06
2023-01-19T07:16:27.465Z,100254.48
2023-01-19T07:18:55.908Z,100257.54
2023-01-19T07:21:24.101Z,100265.27
2023-01-19T07:23:52.657Z,100268.84
2023-01-19T07:26:22.035Z,100269.34
2023-01-19T07:28:50.879Z,100271.69
2023-01-19T07:31:20.102Z,100272.27
2023-01-19T07:33:49.054Z,100270.73
2023-01-19T07:36:18.032Z,100272.33
2023-01-19T07:38:46.937Z,100271.48
2023-01-19T07:41:17.529Z,100272.63
2023-01-19T07:43:46.000Z,100272.52
2023-01-19T07:46:14.279Z,100275.97
2023-01-19T07:48:44.567Z,100278.12
2023-01-19T07:51:17.985Z,100283.77
2023-01-19T07:53:46.392Z,100286.75
2023-01-19T07:56:14.913Z,100287.11
2023-01-19T07:58:43.345Z,100290.59
2023-01-19T08:01:13.172Z,100292.98
2023-01-19T08:03:41.392Z,100292.73
2023-01-19T08:06:22.662Z,100294.05
2023-01-19T08:08:50.811Z,100291.58
2023-01-19T08:11:19.155Z,100293.98
2023-01-19T08:13:47.300Z,100287.30
2023-01-19T08:16:15.450Z,100281.16
2023-01-19T08:18:43.639Z,100284.04
2023-01-19T08:21:11.722Z,100282.73
2023-01-19T08:23:39.750Z,100288.50
2023-01-19T08:26:30.133Z,100294.39
2023-01-19T08:29:00.310Z,100294.87
2023-01-19T08:31:28.477Z,100298.04
2023-01-19T08:33:56.526Z,100300.29
2023-01-19T08:36:25.278Z,100301.78
2023-01-19T08:38:53.408Z,100304.09
2023-01-19T08:41:22.621Z,100307.84
2023-01-19T08:43:50.687Z,100306.98
2023-01-19T08:46:21.490Z,100311.64
2023-01-19T08:48:50.590Z,100311.63
2023-01-19T08:51:18.746Z,100309.46
2023-01-19T08:53:46.881Z,100309.83
2023-01-19T08:56:14.916Z,100307.30
2023-01-19T08:58:44.254Z,100309.48
2023-01-19T09:01:17.188Z,100302.73
2023-01-19T09:03:45.491Z,100307.63
2023-01-19T09:06:15.147Z,100306.89
2023-01-19T09:08:43.797Z,100306.25
2023-01-19T09:11:12.973Z,100305.04
2023-01-19T09:13:41.559Z,100308.92
2023-01-19T09:16:09.899Z,100308.49
2023-01-19T09:18:37.944Z,100310.64
2023-01-19T09:21:06.178Z,100310.72
2023-01-19T09:23:34.305Z,100316.84
2023-01-19T09:26:03.351Z,100315.10
2023-01-19T09:28:31.661Z,100319.72
2023-01-19T09:30:59.723Z,100321.37
2023-01-19T09:33:27.893Z,100314.92
2023-01-19T09:35:56.827Z,100313.34
2023-01-19T09:38:26.067Z,100313.07
2023-01-19T09:40:55.337Z,100317.32
2023-01-19T09:43:42.540Z,100318.42
2023-01-19T09:46:22.956Z,100326.00
2023-01-19T09:48:56.817Z,100327.98
2023-01-19T09:51:45.379Z,100330.33
2023-01-19T09:54:17.465Z,100328.84
2023-01-19T09:56:46.514Z,100324.56
2023-01-19T09:59:23.677Z,100315.99
2023-01-19T10:02:00.626Z,100311.75
2023-01-19T10:04:44.530Z,100305.58
2023-01-19T10:07:40.064Z,100302.09
2023-01-19T10:10:18.389Z,100302.23
2023-01-19T10:12:55.563Z,100298.95
2023-01-19T10:15:39.640Z,100299.14
2023-01-19T10:18:33.403Z,100297.24
2023-01-19T10:21:10.769Z,100292.44
2023-01-19T10:23:43.370Z,100286.14
2023-01-19T10:26:18.870Z,100281.56
2023-01-19T10:28:48.077Z,100284.23
2023-01-19T10:31:18.606Z,100288.79
2023-01-19T10:33:46.982Z,100292.64
2023-01-19T10:36:29.713Z,100295.81
2023-01-19T10:38:57.679Z,100293.23
2023-01-19T10:41:42.216Z,100294.27
2023-01-19T10:44:11.228Z,100292.56
2023-01-19T10:46:47.418Z,100291.23
2023-01-19T10:49:39.655Z,100291.48
2023-01-19T10:52:09.309Z,100291.73
2023-01-19T10:54:37.469Z,100293.54
2023-01-19T10:57:08.194Z,100300.71
2023-01-19T10:59:36.332Z,100305.52
2023-01-19T11:02:26.690Z,100308.09
2023-01-19T11:04:56.891Z,100312.64
2023-01-19T11:07:29.960Z,100314.88
2023-01-19T11:10:16.412Z,100314.34
2023-01-19T11:13:04.777Z,100313.14
2023-01-19T11:15:46.489Z,100318.08
2023-01-19T11:18:35.354Z,100318.56
2023-01-19T11:21:15.367Z,100317.82
2023-01-19T11:23:47.052Z,100310.12
2023-01-19T11:26:16.589Z,100311.84
2023-01-19T11:28:48.713Z,100309.61
2023-01-19T11:31:35.260Z,100305.69
2023-01-19T11:34:22.319Z,100296.06
2023-01-19T11:37:01.681Z,100298.45
2023-01-19T11:39:31.147Z,100298.06
2023-01-19T11:42:03.386Z,100298.01
2023-01-19T11:44:33.886Z,100293.88
2023-01-19T11:47:06.881Z,100291.97
2023-01-19T11:49:44.699Z,100292.70
2023-01-19T11:52:24.682Z,100292.02
2023-01-19T11:55:46.161Z,100291.30
2023-01-19T11:58:18.438Z,100287.60
2023-01-19T12:00:57.172Z,100284.20
2023-01-19T12:03:32.113Z,100277.99
2023-01-19T12:06:19.986Z,100280.64
2023-01-19T12:08:56.635Z,100282.67
2023-01-19T12:11:39.206Z,100290.41
2023-01-19T12:14:14.420Z,100293.79
2023-01-19T12:16:42.593Z,100297.36
2023-01-19T12:19:20.669Z,100300.18
2023-01-19T12:21:48.677Z,100295.29
2023-01-19T12:24:18.571Z,100296.08
2023-01-19T12:26:54.870Z,100297.10
2023-01-19T12:29:25.026Z,100298.80
2023-01-19T12:32:16.487Z,100298.89
2023-01-19T12:34:48.926Z,100296.95
2023-01-19T12:37:36.328Z,100294.50
2023-01-19T12:40:13.564Z,100292.19
2023-01-19T12:42:45.799Z,100290.20
2023-01-19T12:45:15.058Z,100286.89
2023-01-19T12:47:52.892Z,100289.73
2023-01-19T12:50:23.590Z,100288.92
2023-01-19T12:52:57.448Z,100281.61
2023-01-19T12:55:25.609Z,100276.93
2023-01-19T12:58:23.707Z,100271.73
2023-01-19T13:01:13.379Z,100273.70
2023-01-19T13:03:46.167Z,100272.81
2023-01-19T13:06:14.338Z,100277.04
2023-01-19T13:09:26.636Z,100275.89
2023-01-19T13:12:23.272Z,100277.65
2023-01-19T13:14:51.419Z,100280.96
2023-01-19T13:17:26.094Z,100282.41
2023-01-19T13:20:27.639Z,100293.77
2023-01-19T13:23:19.725Z,100298.38
2023-01-19T13:25:53.197Z,100301.34
2023-01-19T13:28:29.157Z,100300.60
2023-01-19T13:30:59.041Z,100300.30
2023-01-19T13:33:28.354Z,100301.52
2023-01-19T13:35:58.900Z,100305.32
2023-01-19T13:38:27.656Z,100303.52
2023-01-19T13:40:55.955Z,100306.69
2023-01-19T13:43:29.314Z,100304.89
2023-01-19T13:45:57.408Z,100300.95
2023-01-19T13:48:25.901Z,100299.59
2023-01-19T13:51:17.797Z,100299.73
2023-01-19T13:53:56.623Z,100301.63
2023-01-19T13:56:26.187Z,100299.34
2023-01-19T13:59:00.857Z,100300.23
2023-01-19T14:01:31.338Z,100301.92
2023-01-19T14:04:00.000Z,100301.27
2023-01-19T14:06:39.824Z,100303.98
2023-01-19T14:09:16.838Z,100307.96
2023-01-19T14:11:47.011Z,100309.75
2023-01-19T14:14:42.489Z,100317.34
2023-01-19T14:17:37.105Z,100315.52
2023-01-19T14:20:05.882Z,100317.67
2023-01-19T14:22:41.495Z,100321.51
2023-01-19T14:25:29.205Z,100321.68
2023-01-19T14:28:29.229Z,100322.40
2023-01-19T14:31:02.196Z,100327.22
2023-01-19T14:33:40.247Z,100329.48
2023-01-19T14:36:17.593Z,100333.56
2023-01-19T14:38:46.572Z,100334.47
2023-01-19T14:41:23.915Z,100335.98
2023-01-19T14:43:51.995Z,100338.98
2023-01-19T14:46:20.346Z,100340.98
2023-01-19T14:48:49.014Z,100347.10
2023-01-19T14:51:19.760Z,100347.52
2023-01-19T14:53:52.129Z,100348.06
2023-01-19T14:56:31.230Z,100342.72
2023-01-19T14:58:59.925Z,100344.89
2023-01-19T15:01:31.511Z,100347.61
2023-01-19T15:03:59.731Z,100348.71
2023-01-19T15:06:28.111Z,100352.98
2023-01-19T15:08:56.494Z,100352.48
2023-01-19T15:11:32.491Z,100352.45
2023-01-19T15:14:00.970Z,100357.55
2023-01-19T15:16:29.890Z,100360.17
2023-01-19T15:18:57.915Z,100364.84
2023-01-19T15:21:28.781Z,100362.16
2023-01-19T15:23:58.604Z,100365.20
2023-01-19T15:26:26.906Z,100368.30
2023-01-19T15:28:56.106Z,100368.02
2023-01-19T15:31:25.113Z,100368.39
2023-01-19T15:33:53.179Z,100363.88
2023-01-19T15:36:22.137Z,100357.16
2023-01-19T15:38:51.219Z,100357.19
2023-01-19T15:41:23.449Z,100359.98
2023-01-19T15:43:51.860Z,100362.96
2023-01-19T15:46:20.988Z,100363.91
2023-01-19T15:48:50.482Z,100366.85
2023-01-19T15:51:20.100Z,100369.13
2023-01-19T15:53:49.343Z,100372.48
2023-01-19T15:56:23.533Z,100373.77
2023-01-19T15:58:52.361Z,100371.48
2023-01-19T16:01:22.537Z,100371.91
2023-01-19T16:03:50.790Z,100373.41
2023-01-19T16:06:19.051Z,100376.27
2023-01-19T16:08:47.317Z,100379.70
2023-01-19T16:11:15.608Z,100379.55
2023-01-19T16:13:46.688Z,100376.54
2023-01-19T16:16:18.927Z,100375.88
2023-01-19T16:18:46.892Z,100382.00
2023-01-19T16:21:14.994Z,100384.12
2023-01-19T16:23:43.031Z,100391.11
2023-01-19T16:26:29.408Z,100391.55
2023-01-19T16:29:01.851Z,100391.61
2023-01-19T16:31:29.946Z,100394.17
2023-01-19T16:33:57.965Z,100395.13
2023-01-19T16:36:28.296Z,100396.11
2023-01-19T16:39:00.994Z,100395.34
2023-01-19T16:41:28.993Z,100403.12
2023-01-19T16:43:57.686Z,100404.77
2023-01-19T16:46:27.285Z,100400.35
2023-01-19T16:48:59.110Z,100396.79
2023-01-19T16:51:27.144Z,100398.73
2023-01-19T16:53:55.479Z,100402.27
2023-01-19T16:56:23.464Z,100398.74
2023-01-19T16:58:58.499Z,100397.81
2023-01-19T17:01:28.253Z,100411.86
2023-01-19T17:03:56.626Z,100412.88
2023-01-19T17:06:25.423Z,100413.65
2023-01-19T17:08:53.933Z,100411.40
2023-01-19T17:11:27.143Z,100410.02
2023-01-19T17:14:00.354Z,100412.23
2023-01-19T17:16:29.412Z,100410.61
2023-01-19T17:18:58.475Z,100409.67
2023-01-19T17:21:26.580Z,100404.36
2023-01-19T17:23:55.192Z,100408.41
2023-01-19T17:26:25.392Z,100405.52
2023-01-19T17:28:53.537Z,100410.11
2023-01-19T17:31:22.277Z,100414.20
2023-01-19T17:33:50.549Z,100418.83
2023-01-19T17:36:25.175Z,100424.54
2023-01-19T17:38:54.564Z,100428.83
2023-01-19T17:41:24.370Z,100430.09
2023-01-19T17:43:52.514Z,100435.65
2023-01-19T17:46:22.115Z,100441.83
2023-01-19T17:48:57.973Z,100443.34
2023-01-19T17:51:26.840Z,100441.27
2023-01-19T17:53:57.627Z,100435.77
2023-01-19T17:56:30.471Z,100437.09
2023-01-19T17:58:58.891Z,100436.30
2023-01-19T18:01:29.190Z,100441.20
2023-01-19T18:03:58.060Z,100446.84
2023-01-19T18:06:26.142Z,100454.04
2023-01-19T18:08:54.803Z,100458.52
2023-01-19T18:11:26.834Z,100455.98
2023-01-19T18:13:55.061Z,100457.53
2023-01-19T18:16:25.412Z,100458.56
2023-01-19T18:18:54.012Z,100456.77
2023-01-19T18:21:22.911Z,100456.31
2023-01-19T18:23:51.217Z,100457.33
2023-01-19T18:26:21.313Z,100461.11
2023-01-19T18:28:49.544Z,100459.55
2023-01-19T18:31:18.739Z,100462.98
2023-01-19T18:33:49.616Z,100465.25
2023-01-19T18:36:17.907Z,100465.63
2023-01-19T18:38:46.968Z,100466.40
2023-01-19T18:41:19.228Z,100466.55
2023-01-19T18:43:47.910Z,100464.67
2023-01-19T18:46:16.299Z,100468.94
2023-01-19T18:48:44.968Z,100469.29
2023-01-19T18:51:14.350Z,100466.76
2023-01-19T18:53:43.727Z,100464.39
2023-01-19T18:56:22.237Z,100461.94
2023-01-19T18:58:50.761Z,100463.91
2023-01-19T19:01:21.678Z,100465.87
2023-01-19T19:03:50.199Z,100474.33
2023-01-19T19:06:23.021Z,100474.63
2023-01-19T19:08:56.214Z,100476.41
2023-01-19T19:11:24.644Z,100472.82
2023-01-19T19:13:53.835Z,100470.31
2023-01-19T19:16:22.226Z,100466.83
2023-01-19T19:18:50.521Z,100468.52
2023-01-19T19:21:19.443Z,100465.77
2023-01-19T19:23:52.289Z,100464.50
2023-01-19T19:26:20.442Z,100469.08
2023-01-19T19:28:48.593Z,100473.04
2023-01-19T19:31:20.823Z,100473.05
2023-01-19T19:33:49.057Z,100476.14
2023-01-19T19:36:17.239Z,100478.23
2023-01-19T19:38:48.122Z,100480.64
2023-01-19T19:41:18.903Z,100480.11
2023-01-19T19:43:46.956Z,100481.63
2023-01-19T19:46:15.974Z,100483.85
2023-01-19T19:48:44.075Z,100488.14
2023-01-19T19:51:22.782Z,100491.52
2023-01-19T19:53:51.978Z,100483.96
2023-01-19T19:56:21.470Z,100483.96
2023-01-19T19:58:50.679Z,100486.04
2023-01-19T20:01:20.891Z,100488.91
2023-01-19T20:03:49.328Z,100496.21
2023-01-19T20:06:20.919Z,100498.98
2023-01-19T20:08:49.976Z,100497.79
2023-01-19T20:11:20.123Z,100495.12
2023-01-19T20:13:48.087Z,100500.36
2023-01-19T20:16:17.583Z,100500.02
2023-01-19T20:18:51.466Z,100509.36
2023-01-19T20:21:21.670Z,100510.44
2023-01-19T20:23:50.709Z,100512.38
2023-01-19T20:26:20.911Z,100510.20
2023-01-19T20:28:48.973Z,100514.52
2023-01-19T20:31:25.073Z,100511.59
2023-01-19T20:33:53.726Z,100512.57
2023-01-19T20:36:24.386Z,100514.49
2023-01-19T20:38:53.053Z,100517.16
2023-01-19T20:41:21.834Z,100521.48
2023-01-19T20:43:49.978Z,100526.79
2023-01-19T20:46:18.389Z,100527.95
2023-01-19T20:48:50.971Z,100530.98
2023-01-19T20:51:21.549Z,100534.34
2023-01-19T20:53:49.558Z,100535.59
2023-01-19T20:56:17.565Z,100543.39
2023-01-19T20:58:45.581Z,100544.33
2023-01-19T21:01:24.469Z,100550.91
2023-01-19T21:03:52.675Z,100559.36
2023-01-19T21:06:21.220Z,100566.98
2023-01-19T21:08:52.093Z,100570.73
2023-01-19T21:11:21.310Z,100573.10
2023-01-19T21:13:50.639Z,100567.64
2023-01-19T21:16:18.915Z,100567.50
2023-01-19T21:18:47.156Z,100570.48
2023-01-19T21:21:29.363Z,100573.70
2023-01-19T21:23:59.960Z,100574.20
2023-01-19T21:26:30.073Z,100570.36
2023-01-19T21:28:58.634Z,100570.96
2023-01-19T21:31:27.960Z,100579.66
2023-01-19T21:33:59.285Z,100582.97
2023-01-19T21:36:27.408Z,100586.05
2023-01-19T21:39:00.643Z,100585.13
2023-01-19T21:41:30.567Z,100585.55
2023-01-19T21:44:00.356Z,100590.76
2023-01-19T21:46:33.193Z,100597.64
2023-01-19T21:49:02.955Z,100592.99
2023-01-19T21:51:35.135Z,100594.30
2023-01-19T21:54:04.578Z,100594.73
2023-01-19T21:56:32.991Z,100589.90
2023-01-19T21:59:04.338Z,100591.64
2023-01-19T22:01:32.907Z,100596.48
2023-01-19T22:04:01.115Z,100604.60
2023-01-19T22:06:29.166Z,100605.91
2023-01-19T22:08:58.588Z,100607.65
2023-01-19T22:11:28.112Z,100614.66
2023-01-19T22:13:56.275Z,100619.51
2023-01-19T22:16:24.395Z,100620.71
2023-01-19T22:18:54.530Z,100617.10
2023-01-19T22:21:34.069Z,100615.84
2023-01-19T22:24:03.967Z,100609.86
2023-01-19T22:26:34.477Z,100610.96
2023-01-19T22:29:03.603Z,100612.15
2023-01-19T22:31:31.877Z,100620.13
2023-01-19T22:34:00.014Z,100624.65
2023-01-19T22:36:29.872Z,100628.28
2023-01-19T22:39:01.709Z,100632.85
2023-01-19T22:41:34.438Z,100636.31
2023-01-19T22:44:07.319Z,100638.86
2023-01-19T22:46:36.176Z,100636.31
2023-01-19T22:49:05.533Z,100639.98
2023-01-19T22:51:34.468Z,100642.20
2023-01-19T22:54:02.722Z,100649.83
2023-01-19T22:56:32.150Z,100656.15
2023-01-19T22:59:00.305Z,100662.23
2023-01-19T23:01:33.766Z,100667.85
2023-01-19T23:04:02.615Z,100673.17
2023-01-19T23:06:32.526Z,100675.00
2023-01-19T23:09:02.411Z,100676.89
2023-01-19T23:11:35.937Z,100679.61
2023-01-19T23:14:07.033Z,100682.75
2023-01-19T23:16:35.355Z,100677.17
2023-01-19T23:19:03.703Z,100677.08
2023-01-19T23:21:32.400Z,100677.02
2023-01-19T23:24:01.869Z,100677.11
2023-01-19T23:26:31.095Z,100679.64
2023-01-19T23:29:01.061Z,100674.17
2023-01-19T23:31:31.099Z,100673.17
2023-01-19T23:34:00.974Z,100670.09
2023-01-19T23:36:30.256Z,100677.59
2023-01-19T23:38:59.923Z,100686.05
2023-01-19T23:41:28.972Z,100688.98
2023-01-19T23:43:57.015Z,100685.25
2023-01-19T23:46:25.024Z,100683.58
2023-01-19T23:48:53.332Z,100681.08
2023-01-19T23:51:23.610Z,100675.52
2023-01-19T23:53:52.101Z,100680.98
2023-01-19T23:56:22.156Z,100682.16
2023-01-19T23:59:04.891Z,100680.99
